Terminal Aerodrome Forecast
Issued by NWS Kansas City/Pleasant Hill, MO

Home | Current Version | Previous Version | Text Only | Print | Product List | Glossary On
Versions: 1 2 3 4 5 6 7 8 9 10 11 12 13 14 15 16 17 18 19 20 21 22 23 24
000
FTUS43 KEAX 191120
TAFMCI
TAF
KMCI 191120Z 1912/2012 14006KT 2SM BR OVC007
      TEMPO 1912/1915 1/2SM FG OVC003
     FM191800 12006KT 4SM BR OVC008
     FM200600 09005KT 2SM BR OVC005=

USA.gov is the U.S. government's official web portal to all federal, state and local government web resources and services.